Time;durP1;ratioP1;P1;durP2;ratioP2;P2;SDS_P1;SDS_P2;PMS_P1;PMS_P2;Temp;Humidity;BMP_temperature;BMP_pressure;BME280_temperature;BME280_humidity;BME280_pressure;Samples;Min_cycle;Max_cycle;Signal;HPM_P1;HPM_P2
2022/07/22 00:02:03;;;;;;;;;;;;;;;23.38;54.26;99677.44;5054543;28;19932;-68
2022/07/22 00:04:33;;;;;;;;;;;;;;;23.37;54.48;99690.56;5054938;28;19928;-68
2022/07/22 00:07:02;;;;;;;;;;;;;;;23.38;54.69;99687.88;5055512;28;20274;-68
2022/07/22 00:09:30;;;;;;;;;;;;;;;23.33;54.46;99689.84;5054812;28;20305;-68
2022/07/22 00:11:59;;;;;;;;;;;;;;;23.39;54.01;99689.56;5054442;28;19978;-68
2022/07/22 00:14:27;;;;;;;;;;;;;;;23.44;53.45;99687.56;5054271;28;20466;-68
2022/07/22 00:16:56;;;;;;;;;;;;;;;23.36;53.62;99687.13;5054369;28;19925;-68
2022/07/22 00:19:25;;;;;;;;;;;;;;;23.39;53.44;99689.56;5054346;28;20397;-68
2022/07/22 00:21:55;;;;;;;;;;;;;;;23.51;53.42;99693.28;5054289;28;19975;-68
2022/07/22 00:24:23;;;;;;;;;;;;;;;23.46;53.77;99696.13;5054394;28;19929;-68
2022/07/22 00:26:51;;;;;;;;;;;;;;;23.52;53.63;99703.63;5054775;28;19925;-68
2022/07/22 00:29:20;;;;;;;;;;;;;;;23.53;54.07;99707.91;5054471;28;19924;-68
2022/07/22 00:31:49;;;;;;;;;;;;;;;23.51;54.17;99704.56;5052992;28;19932;-68
2022/07/22 00:34:18;;;;;;;;;;;;;;;23.46;54.08;99703.94;5054212;28;19935;-68
2022/07/22 00:36:46;;;;;;;;;;;;;;;23.47;53.97;99708.22;5054056;28;19924;-67
2022/07/22 00:39:16;;;;;;;;;;;;;;;23.49;53.77;99701.16;5054558;28;19924;-68
2022/07/22 00:41:45;;;;;;;;;;;;;;;23.53;53.87;99707.91;5054007;28;19925;-68
2022/07/22 00:44:13;;;;;;;;;;;;;;;23.57;53.98;99709.41;5053018;28;19924;-68
2022/07/22 00:46:42;;;;;;;;;;;;;;;23.58;53.87;99711.13;5054224;28;19925;-68
2022/07/22 00:49:11;;;;;;;;;;;;;;;23.51;54.26;99714.97;5069686;28;20294;-68
2022/07/22 00:51:40;;;;;;;;;;;;;;;23.42;54.55;99720.66;5052390;28;20329;-68
2022/07/22 00:54:09;;;;;;;;;;;;;;;23.47;54.07;99707.41;5054070;28;20401;-68
2022/07/22 00:56:39;;;;;;;;;;;;;;;23.58;53.60;99711.13;5052705;28;19975;-68
2022/07/22 00:59:10;;;;;;;;;;;;;;;23.63;53.40;99695.22;5054133;28;19935;-68
2022/07/22 01:01:40;;;;;;;;;;;;;;;23.52;53.62;99700.16;5053805;28;19975;-68
2022/07/22 01:04:08;;;;;;;;;;;;;;;23.48;54.02;99701.25;5053983;28;20497;-68
2022/07/22 01:06:37;;;;;;;;;;;;;;;23.36;54.13;99689.72;5057479;28;19925;-68
2022/07/22 01:09:06;;;;;;;;;;;;;;;23.34;53.81;99696.75;5057865;28;19956;-68
2022/07/22 01:11:34;;;;;;;;;;;;;;;23.33;54.04;99689.84;5056708;28;19924;-68
2022/07/22 01:14:04;;;;;;;;;;;;;;;23.22;54.06;99702.59;5056487;28;19925;-68
2022/07/22 01:16:33;;;;;;;;;;;;;;;23.22;54.24;99697.38;5056979;28;19924;-68
2022/07/22 01:19:02;;;;;;;;;;;;;;;23.23;54.25;99697.28;5056507;28;19924;-68
2022/07/22 01:21:32;;;;;;;;;;;;;;;23.22;54.05;99692.19;5058265;28;19925;-68
2022/07/22 01:24:01;;;;;;;;;;;;;;;23.20;53.84;99700.06;5056754;28;19998;-68
2022/07/22 01:26:30;;;;;;;;;;;;;;;23.22;53.83;99702.59;5057776;28;19925;-68
2022/07/22 01:28:58;;;;;;;;;;;;;;;23.26;54.09;99709.31;5056325;28;20430;-68
2022/07/22 01:31:29;;;;;;;;;;;;;;;23.23;54.46;99699.06;5073270;28;19925;-68
2022/07/22 01:33:58;;;;;;;;;;;;;;;23.18;54.59;99711.47;5058019;28;19983;-68
2022/07/22 01:36:27;;;;;;;;;;;;;;;23.22;54.64;99723.44;5057557;28;19925;-68
2022/07/22 01:38:57;;;;;;;;;;;;;;;23.23;54.58;99730.31;5056210;28;19925;-68
2022/07/22 01:41:27;;;;;;;;;;;;;;;23.21;54.00;99722.59;5072813;28;19932;-68
2022/07/22 01:43:55;;;;;;;;;;;;;;;23.18;53.62;99722.72;5056056;28;19925;-68
2022/07/22 01:46:24;;;;;;;;;;;;;;;23.13;53.22;99721.31;5072893;28;20008;-69
2022/07/22 01:48:52;;;;;;;;;;;;;;;;;;5056045;28;20012;-68
2022/07/22 01:51:21;;;;;;;;;;;;;;;23.16;53.37;99723.72;5055949;28;19929;-68
2022/07/22 01:53:50;;;;;;;;;;;;;;;23.16;53.55;99718.53;5055736;28;19972;-68
2022/07/22 01:56:20;;;;;;;;;;;;;;;23.18;54.02;99716.69;5072345;28;20074;-68
2022/07/22 01:58:51;;;;;;;;;;;;;;;23.20;53.98;99714.88;5057331;28;20282;-68
2022/07/22 02:01:25;;;;;;;;;;;;;;;23.26;53.99;99709.31;5057315;28;19925;-68
2022/07/22 02:03:54;;;;;;;;;;;;;;;23.30;54.33;99713.44;5056943;28;19925;-68
2022/07/22 02:06:23;;;;;;;;;;;;;;;23.34;54.23;99707.16;5057066;28;19948;-68
2022/07/22 02:08:53;;;;;;;;;;;;;;;23.34;54.28;99707.16;5056802;28;19925;-68
2022/07/22 02:11:33;;;;;;;;;;;;;;;23.40;54.04;99701.66;5056858;28;19925;-68
2022/07/22 02:14:02;;;;;;;;;;;;;;;23.46;54.08;99706.56;5055604;28;19964;-68
2022/07/22 02:16:31;;;;;;;;;;;;;;;23.50;54.05;99700.25;5055380;28;19932;-68
2022/07/22 02:19:00;;;;;;;;;;;;;;;23.49;53.72;99706.38;5056446;28;19924;-68
2022/07/22 02:21:28;;;;;;;;;;;;;;;23.49;53.75;99711.59;5055397;28;19951;-68
2022/07/22 02:24:00;;;;;;;;;;;;;;;23.55;53.82;99715.63;5072067;28;19952;-68
2022/07/22 02:26:30;;;;;;;;;;;;;;;23.56;53.95;99717.34;5056364;28;19972;-68
2022/07/22 02:29:00;;;;;;;;;;;;;;;23.47;54.70;99718.66;5071885;28;19925;-68
2022/07/22 02:31:28;;;;;;;;;;;;;;;23.32;55.34;99714.22;5055926;28;19925;-68
2022/07/22 02:33:58;;;;;;;;;;;;;;;23.33;55.36;99726.31;5056310;28;19925;-68
2022/07/22 02:36:29;;;;;;;;;;;;;;;23.35;54.98;99724.50;5056232;28;19960;-68
2022/07/22 02:38:58;;;;;;;;;;;;;;;23.41;54.99;99718.97;5071730;28;19928;-68
2022/07/22 02:41:28;;;;;;;;;;;;;;;23.37;55.34;99717.44;5056559;28;19925;-68
2022/07/22 02:44:00;;;;;;;;;;;;;;;23.40;55.53;99719.88;5056106;28;19925;-68
2022/07/22 02:46:29;;;;;;;;;;;;;;;23.36;55.44;99704.50;5056059;28;19925;-68
2022/07/22 02:49:06;;;;;;;;;;;;;;;23.38;55.54;99713.06;5056586;28;20428;-68
2022/07/22 02:51:35;;;;;;;;;;;;;;;23.46;55.33;99701.34;5056078;28;20441;-68
2022/07/22 02:54:05;;;;;;;;;;;;;;;23.49;55.24;99701.16;5071320;28;20286;-68
2022/07/22 02:56:33;;;;;;;;;;;;;;;23.52;55.78;99711.44;5071203;28;19925;-68
2022/07/22 02:59:03;;;;;;;;;;;;;;;23.50;56.00;99707.22;5054927;28;20277;-68
2022/07/22 03:01:32;;;;;;;;;;;;;;;23.48;56.28;99704.72;5054906;28;19932;-68
2022/07/22 03:04:01;;;;;;;;;;;;;;;23.41;56.30;99713.78;5054895;28;19929;-68
2022/07/22 03:06:33;;;;;;;;;;;;;;;23.34;56.55;99707.16;5055994;28;19925;-68
2022/07/22 03:09:15;;;;;;;;;;;;;;;23.41;56.33;99707.72;5056830;28;20254;-68
2022/07/22 03:11:45;;;;;;;;;;;;;;;23.53;56.08;99702.69;5055664;28;19925;-68
2022/07/22 03:14:18;;;;;;;;;;;;;;;23.64;55.94;99705.56;5055821;28;20338;-68
2022/07/22 03:16:47;;;;;;;;;;;;;;;23.71;55.73;99691.28;5055484;28;20392;-68
2022/07/22 03:19:15;;;;;;;;;;;;;;;23.78;55.72;99708.25;5054232;28;20378;-68
2022/07/22 03:21:48;;;;;;;;;;;;;;;23.84;55.77;99707.09;5071437;28;19947;-68
2022/07/22 03:24:17;;;;;;;;;;;;;;;23.80;55.97;99706.41;5071070;28;19929;-68
2022/07/22 03:26:45;;;;;;;;;;;;;;;23.74;56.42;99717.19;5054141;28;20023;-68
2022/07/22 03:29:14;;;;;;;;;;;;;;;23.75;56.50;99710.22;5070536;28;20370;-68
2022/07/22 03:31:45;;;;;;;;;;;;;;;23.77;56.57;99718.78;5055179;28;20016;-68
2022/07/22 03:34:14;;;;;;;;;;;;;;;23.82;56.84;99719.38;5070926;28;20016;-68
2022/07/22 03:36:52;;;;;;;;;;;;;;;23.83;56.78;99711.47;5054119;28;19924;-68
2022/07/22 03:39:20;;;;;;;;;;;;;;;23.87;56.71;99707.75;5055021;28;19929;-68
2022/07/22 03:41:49;;;;;;;;;;;;;;;23.89;56.90;99705.94;5054158;28;19960;-68
2022/07/22 03:44:18;;;;;;;;;;;;;;;23.86;56.86;99711.31;5053809;28;20355;-68
2022/07/22 03:46:48;;;;;;;;;;;;;;;23.89;56.92;99711.16;5054104;28;19925;-68
2022/07/22 03:49:17;;;;;;;;;;;;;;;23.91;56.64;99706.69;5070659;28;19925;-68
2022/07/22 03:51:46;;;;;;;;;;;;;;;23.84;56.28;99718.38;5054600;28;19971;-69
2022/07/22 03:54:14;;;;;;;;;;;;;;;23.83;56.34;99719.28;5054775;28;19929;-68
2022/07/22 03:56:44;;;;;;;;;;;;;;;23.72;56.63;99724.25;5054859;28;20027;-68
2022/07/22 03:59:12;;;;;;;;;;;;;;;23.64;56.90;99731.63;5054525;28;19925;-68
2022/07/22 04:01:41;;;;;;;;;;;;;;;23.64;56.66;99731.63;5053824;28;19929;-68
2022/07/22 04:04:13;;;;;;;;;;;;;;;23.68;56.46;99734.94;5054710;28;19979;-68
2022/07/22 04:06:45;;;;;;;;;;;;;;;23.67;56.24;99738.44;5054582;28;19925;-68
2022/07/22 04:09:20;;;;;;;;;;;;;;;23.64;56.49;99736.84;5054770;28;19924;-68
2022/07/22 04:11:50;;;;;;;;;;;;;;;23.63;56.57;99727.34;5053523;28;19925;-68
2022/07/22 04:14:20;;;;;;;;;;;;;;;23.66;56.46;99729.78;5054451;28;19924;-68
2022/07/22 04:16:49;;;;;;;;;;;;;;;23.70;56.53;99722.66;5070017;28;19947;-68
2022/07/22 04:19:19;;;;;;;;;;;;;;;23.66;57.08;99721.97;5053361;28;20363;-68
2022/07/22 04:21:53;;;;;;;;;;;;;;;23.71;57.36;99717.34;5054314;28;19931;-68
2022/07/22 04:24:25;;;;;;;;;;;;;;;23.77;57.56;99717.03;5054680;28;19925;-68
2022/07/22 04:26:55;;;;;;;;;;;;;;;23.85;57.18;99712.22;5054592;28;19929;-68
2022/07/22 04:29:25;;;;;;;;;;;;;;;23.96;56.79;99714.25;5054736;28;20348;-68
2022/07/22 04:31:54;;;;;;;;;;;;;;;24.00;56.57;99706.19;5053167;28;19971;-68
2022/07/22 04:34:31;;;;;;;;;;;;;;;24.02;56.80;99720.91;5069600;28;19936;-68
2022/07/22 04:37:01;;;;;;;;;;;;;;;24.00;56.38;99723.59;5054479;28;19928;-68
2022/07/22 04:39:35;;;;;;;;;;;;;;;24.02;56.28;99720.91;5053443;28;20394;-68
2022/07/22 04:42:03;;;;;;;;;;;;;;;24.02;55.96;99720.91;5070348;28;19972;-68
2022/07/22 04:44:33;;;;;;;;;;;;;;;24.05;56.06;99726.78;5054590;28;19924;-68
2022/07/22 04:47:02;;;;;;;;;;;;;;;24.00;55.89;99724.44;5053018;28;19963;-68
2022/07/22 04:49:40;;;;;;;;;;;;;;;24.01;56.29;99720.06;5069337;28;19924;-68
2022/07/22 04:52:10;;;;;;;;;;;;;;;24.05;56.35;99731.16;5069469;28;19960;-69
2022/07/22 04:54:48;;;;;;;;;;;;;;;24.05;56.62;99731.16;5053874;28;19931;-68
2022/07/22 04:57:18;;;;;;;;;;;;;;;24.09;56.44;99730.13;5053867;28;20378;-68
2022/07/22 04:59:46;;;;;;;;;;;;;;;24.18;56.20;99733.06;5052551;28;20020;-68
2022/07/22 05:02:15;;;;;;;;;;;;;;;24.27;55.66;99727.31;5052843;28;19978;-68
2022/07/22 05:04:45;;;;;;;;;;;;;;;24.37;55.17;99725.03;5069244;28;20386;-68
2022/07/22 05:07:16;;;;;;;;;;;;;;;24.49;55.17;99721.72;5053994;28;19971;-68
2022/07/22 05:09:45;;;;;;;;;;;;;;;24.61;55.00;99726.25;5053739;28;19925;-68
2022/07/22 05:12:16;;;;;;;;;;;;;;;24.78;55.05;99731.38;5053696;28;19948;-68
2022/07/22 05:14:45;;;;;;;;;;;;;;;24.94;54.89;99728.69;5053633;28;19925;-68
2022/07/22 05:17:13;;;;;;;;;;;;;;;24.98;54.23;99725.00;5052606;28;19925;-68
2022/07/22 05:20:02;;;;;;;;;;;;;;;25.10;53.70;99732.94;5053668;28;20011;-68
2022/07/22 05:22:31;;;;;;;;;;;;;;;25.23;53.24;99728.66;5052393;28;20011;-68
2022/07/22 05:25:09;;;;;;;;;;;;;;;25.40;52.94;99726.81;5069185;28;19928;-68
2022/07/22 05:27:38;;;;;;;;;;;;;;;25.56;52.36;99727.56;5052620;28;19932;-68
2022/07/22 05:30:07;;;;;;;;;;;;;;;25.71;51.89;99721.41;5052764;28;19987;-68
2022/07/22 05:32:37;;;;;;;;;;;;;;;25.85;51.44;99731.84;5053498;28;19924;-68
2022/07/22 05:35:08;;;;;;;;;;;;;;;26.01;50.96;99729.94;5053504;28;19963;-68
2022/07/22 05:37:36;;;;;;;;;;;;;;;26.13;50.34;99729.19;5052298;28;19970;-68
2022/07/22 05:40:05;;;;;;;;;;;;;;;26.23;49.98;99735.53;5052265;28;19931;-68
2022/07/22 05:42:34;;;;;;;;;;;;;;;26.40;49.51;99731.81;5069166;28;19925;-68
2022/07/22 05:45:02;;;;;;;;;;;;;;;26.52;49.10;99739.72;5053359;28;19925;-69
2022/07/22 05:47:31;;;;;;;;;;;;;;;26.71;48.54;99738.50;5052206;28;19978;-68
2022/07/22 05:49:59;;;;;;;;;;;;;;;26.65;48.35;99736.31;5052177;28;19924;-69
2022/07/22 05:52:31;;;;;;;;;;;;;;;26.66;48.14;99730.16;5056113;28;19929;-68
2022/07/22 05:55:00;;;;;;;;;;;;;;;26.82;48.31;99733.44;5039845;28;19925;-69
2022/07/22 05:57:29;;;;;;;;;;;;;;;26.94;47.65;99736.09;5055774;28;19931;-68
2022/07/22 05:59:57;;;;;;;;;;;;;;;26.90;47.96;99739.03;5072788;28;19932;-68
2022/07/22 06:02:26;;;;;;;;;;;;;;;27.06;47.57;99737.06;5055883;28;20015;-68
2022/07/22 06:04:54;;;;;;;;;;;;;;;27.13;47.52;99730.44;5055907;28;20286;-68
2022/07/22 06:07:25;;;;;;;;;;;;;;;27.25;47.61;99727.00;5072422;28;19925;-68
2022/07/22 06:10:01;;;;;;;;;;;;;;;27.43;47.61;99736.25;5056817;28;19925;-68
2022/07/22 06:12:33;;;;;;;;;;;;;;;27.51;47.19;99733.94;5055562;28;19932;-68
2022/07/22 06:15:02;;;;;;;;;;;;;;;27.61;46.76;99734.97;5072399;28;19929;-68
2022/07/22 06:17:30;;;;;;;;;;;;;;;27.75;46.93;99728.75;5055424;28;19928;-68
2022/07/22 06:20:01;;;;;;;;;;;;;;;27.87;46.24;99736.59;5056542;28;19978;-68
2022/07/22 06:22:29;;;;;;;;;;;;;;;27.99;46.67;99734.91;5055434;28;19932;-68
2022/07/22 06:24:58;;;;;;;;;;;;;;;28.00;46.34;99731.38;5055536;28;19970;-68
2022/07/22 06:27:46;;;;;;;;;;;;;;;28.13;46.30;99736.56;5056757;28;19990;-68
2022/07/22 06:30:16;;;;;;;;;;;;;;;28.23;46.38;99732.31;5057078;28;19925;-68
2022/07/22 06:32:45;;;;;;;;;;;;;;;28.25;45.88;99736.50;5055362;28;19947;-68
2022/07/22 06:35:21;;;;;;;;;;;;;;;28.26;45.82;99724.22;5071887;28;19925;-69
2022/07/22 06:37:49;;;;;;;;;;;;;;;28.31;45.96;99727.38;5053214;28;19925;-68
2022/07/22 06:40:42;;;;;;;;;;;;;;;28.40;45.80;99729.31;5071893;28;19951;-68
2022/07/22 06:43:22;;;;;;;;;;;;;;;28.54;45.65;99731.75;5056178;28;19925;-68
2022/07/22 06:46:13;;;;;;;;;;;;;;;28.63;45.32;99723.22;5052031;28;20374;-68
2022/07/22 06:48:49;;;;;;;;;;;;;;;28.70;45.00;99715.75;5056103;28;19925;-68
2022/07/22 06:51:17;;;;;;;;;;;;;;;28.81;45.24;99721.03;5071745;28;19925;-68
2022/07/22 06:53:46;;;;;;;;;;;;;;;28.88;44.43;99717.81;5071305;28;19925;-68
2022/07/22 06:56:16;;;;;;;;;;;;;;;28.94;44.13;99714.72;5071686;28;20363;-68
2022/07/22 06:58:46;;;;;;;;;;;;;;;29.05;43.76;99714.75;5054466;28;19924;-68
2022/07/22 07:01:15;;;;;;;;;;;;;;;29.19;43.40;99714.56;5071239;28;20378;-68
2022/07/22 07:04:09;;;;;;;;;;;;;;;29.31;43.33;99717.19;5051778;28;19979;-68
2022/07/22 07:06:38;;;;;;;;;;;;;;;29.44;43.03;99723.19;5054834;28;20031;-68
2022/07/22 07:09:23;;;;;;;;;;;;;;;29.49;42.81;99715.78;5055976;28;19928;-68
2022/07/22 07:12:04;;;;;;;;;;;;;;;29.61;42.15;99714.84;5048932;28;19950;-68
2022/07/22 07:14:54;;;;;;;;;;;;;;;29.64;41.97;99725.94;5055066;28;19935;-68
2022/07/22 07:17:43;;;;;;;;;;;;;;;29.81;42.23;99716.75;5071047;28;19931;-68
2022/07/22 07:20:16;;;;;;;;;;;;;;;29.87;41.96;99720.69;5055280;28;19925;-68
2022/07/22 07:22:44;;;;;;;;;;;;;;;30.01;42.01;99718.63;5055384;28;19928;-69
2022/07/22 07:25:13;;;;;;;;;;;;;;;29.97;41.73;99717.19;5051439;28;19990;-69
2022/07/22 07:27:53;;;;;;;;;;;;;;;30.11;41.78;99705.56;5032209;28;19925;-67
2022/07/22 07:30:34;;;;;;;;;;;;;;;30.28;41.61;99710.31;5055570;28;19988;-68
2022/07/22 07:33:03;;;;;;;;;;;;;;;30.50;41.53;99707.59;5052993;28;20328;-68
2022/07/22 07:35:32;;;;;;;;;;;;;;;30.49;40.83;99709.41;5055274;28;19935;-69
2022/07/22 07:38:02;;;;;;;;;;;;;;;30.45;40.82;99700.06;5055378;28;20337;-68
2022/07/22 07:40:33;;;;;;;;;;;;;;;30.44;40.84;99705.47;5055178;28;19925;-68
2022/07/22 07:43:02;;;;;;;;;;;;;;;30.50;40.26;99711.06;5053999;28;20020;-68
2022/07/22 07:45:32;;;;;;;;;;;;;;;30.60;40.26;99705.03;5054918;28;20023;-68
2022/07/22 07:48:02;;;;;;;;;;;;;;;30.67;40.01;99696.50;5054930;28;20386;-68
2022/07/22 07:50:32;;;;;;;;;;;;;;;30.79;40.10;99702.53;5052704;28;19936;-69
2022/07/22 07:53:02;;;;;;;;;;;;;;;30.80;39.66;99691.03;5053013;28;20019;-68
2022/07/22 07:55:35;;;;;;;;;;;;;;;30.87;39.76;99700.09;5054539;28;19929;-68
2022/07/22 07:58:04;;;;;;;;;;;;;;;30.91;39.59;99698.91;5052253;28;19925;-68
2022/07/22 08:00:34;;;;;;;;;;;;;;;31.05;39.67;99695.97;5070138;28;20382;-68
2022/07/22 08:03:05;;;;;;;;;;;;;;;31.20;39.73;99694.63;5070411;28;19978;-68
2022/07/22 08:05:38;;;;;;;;;;;;;;;31.30;39.39;99695.53;5052717;28;19925;-68
2022/07/22 08:08:17;;;;;;;;;;;;;;;31.44;39.32;99687.28;5053245;28;20019;-69
2022/07/22 08:10:46;;;;;;;;;;;;;;;31.57;39.17;99687.06;5050754;28;19924;-69
2022/07/22 08:13:33;;;;;;;;;;;;;;;31.66;38.74;99684.44;5052323;28;19931;-69
2022/07/22 08:16:17;;;;;;;;;;;;;;;31.77;38.70;99689.59;5034488;28;19925;-68
2022/07/22 08:18:50;;;;;;;;;;;;;;;31.83;38.25;99682.13;5045550;28;19925;-69
2022/07/22 08:21:19;;;;;;;;;;;;;;;31.86;38.36;99687.13;5050305;28;19932;-68
2022/07/22 08:23:59;;;;;;;;;;;;;;;31.91;38.29;99684.94;5054157;28;20362;-69
2022/07/22 08:26:29;;;;;;;;;;;;;;;31.90;38.14;99688.53;5052070;28;19925;-68
2022/07/22 08:29:01;;;;;;;;;;;;;;;32.04;38.64;99682.88;5034176;28;19976;-68
2022/07/22 08:31:34;;;;;;;;;;;;;;;31.95;38.45;99692.44;5034321;28;19975;-68
2022/07/22 08:34:13;;;;;;;;;;;;;;;31.91;37.93;99695.50;5034649;28;20008;-69
2022/07/22 08:36:42;;;;;;;;;;;;;;;32.00;38.37;99692.06;5057306;28;19931;-68
2022/07/22 08:39:11;;;;;;;;;;;;;;;32.01;38.24;99693.75;5051963;28;20003;-68
2022/07/22 08:41:48;;;;;;;;;;;;;;;32.12;38.09;99690.97;5051486;28;20027;-68
2022/07/22 08:44:16;;;;;;;;;;;;;;;32.16;37.71;99687.06;5049835;28;19957;-70
2022/07/22 08:46:44;;;;;;;;;;;;;;;32.26;37.25;99695.84;5053660;28;19924;-69
2022/07/22 08:49:20;;;;;;;;;;;;;;;32.38;37.44;99692.94;5053885;28;19932;-68
2022/07/22 08:52:00;;;;;;;;;;;;;;;32.54;37.06;99692.38;5053786;28;20461;-69
2022/07/22 08:54:34;;;;;;;;;;;;;;;32.75;38.00;99687.81;5053819;28;19925;-68
2022/07/22 08:57:04;;;;;;;;;;;;;;;32.85;37.18;99693.06;5052914;28;20362;-68
2022/07/22 08:59:32;;;;;;;;;;;;;;;32.97;37.06;99692.75;5053703;28;19925;-68
2022/07/22 09:02:06;;;;;;;;;;;;;;;33.14;36.31;99685.09;5052325;28;19928;-69
2022/07/22 09:04:52;;;;;;;;;;;;;;;33.26;35.99;99686.59;5053719;28;19925;-69
2022/07/22 09:07:24;;;;;;;;;;;;;;;33.32;35.06;99683.34;5054035;28;19925;-68
2022/07/22 09:09:54;;;;;;;;;;;;;;;33.33;35.04;99683.19;5053864;28;19952;-69
2022/07/22 09:12:34;;;;;;;;;;;;;;;33.46;34.72;99677.56;5054120;28;19928;-69
2022/07/22 09:15:11;;;;;;;;;;;;;;;33.58;34.56;99684.38;5053684;28;19925;-69
2022/07/22 09:17:50;;;;;;;;;;;;;;;33.56;35.75;99667.81;5069671;28;19924;-68
2022/07/22 09:20:35;;;;;;;;;;;;;;;33.61;35.33;99678.78;5053440;28;19950;-68
2022/07/22 09:23:17;;;;;;;;;;;;;;;33.73;35.22;99675.81;5053989;28;19936;-69
2022/07/22 09:25:47;;;;;;;;;;;;;;;33.79;34.96;99682.28;5069751;28;19925;-69
2022/07/22 09:28:29;;;;;;;;;;;;;;;33.86;35.15;99678.06;5057585;28;19925;-68
2022/07/22 09:31:23;;;;;;;;;;;;;;;33.96;35.25;99678.00;5057879;28;19924;-68
2022/07/22 09:33:59;;;;;;;;;;;;;;;34.04;34.81;99672.84;5057778;28;20350;-69
2022/07/22 09:36:32;;;;;;;;;;;;;;;34.24;35.07;99675.19;5057851;28;20034;-68
2022/07/22 09:39:01;;;;;;;;;;;;;;;34.54;35.29;99675.81;5073048;28;19929;-68
2022/07/22 09:41:29;;;;;;;;;;;;;;;34.65;35.53;99678.22;5066589;28;20442;-68
2022/07/22 09:44:19;;;;;;;;;;;;;;;34.68;35.56;99677.91;5038861;28;20264;-68
2022/07/22 09:46:49;;;;;;;;;;;;;;;34.64;34.55;99676.56;5056147;28;20366;-69
2022/07/22 09:49:33;;;;;;;;;;;;;;;34.46;34.44;99667.78;5057124;28;19931;-68
2022/07/22 09:52:14;;;;;;;;;;;;;;;34.46;35.03;99663.28;5056988;28;20455;-69
2022/07/22 09:54:54;;;;;;;;;;;;;;;34.69;35.03;99679.56;5056325;28;20035;-68
2022/07/22 09:57:23;;;;;;;;;;;;;;;34.76;34.38;99672.66;5071261;28;19932;-68
2022/07/22 09:59:52;;;;;;;;;;;;;;;34.88;33.72;99666.13;5055436;28;19925;-69
2022/07/22 10:02:45;;;;;;;;;;;;;;;35.00;33.66;99667.53;5036823;28;20024;-69
2022/07/22 10:05:15;;;;;;;;;;;;;;;35.10;33.41;99668.28;5053070;28;19925;-69
2022/07/22 10:07:47;;;;;;;;;;;;;;;34.90;33.23;99667.63;5037516;28;20291;-68
2022/07/22 10:10:18;;;;;;;;;;;;;;;34.83;34.01;99665.75;5036970;28;19925;-68
2022/07/22 10:12:49;;;;;;;;;;;;;;;34.82;33.85;99664.06;5052581;28;19940;-68
2022/07/22 10:15:17;;;;;;;;;;;;;;;34.97;34.04;99657.22;5036617;28;19932;-68
2022/07/22 10:17:50;;;;;;;;;;;;;;;35.05;33.01;99654.66;5036760;28;19925;-68
2022/07/22 10:20:19;;;;;;;;;;;;;;;35.13;32.62;99648.56;5036681;28;19925;-69
2022/07/22 10:22:50;;;;;;;;;;;;;;;35.00;31.90;99651.59;5049678;28;19925;-67
2022/07/22 10:25:28;;;;;;;;;;;;;;;34.81;31.52;99651.81;5055805;28;20363;-68
2022/07/22 10:27:57;;;;;;;;;;;;;;;34.81;32.37;99646.50;5055523;28;19929;-68
2022/07/22 10:30:27;;;;;;;;;;;;;;;34.84;32.70;99643.53;5056244;28;19974;-68
2022/07/22 10:33:06;;;;;;;;;;;;;;;34.88;32.72;99642.22;5056374;28;19935;-68
2022/07/22 10:35:36;;;;;;;;;;;;;;;35.05;32.93;99644.03;5056407;28;19928;-68
2022/07/22 10:38:09;;;;;;;;;;;;;;;35.18;33.10;99627.69;5055328;28;19924;-68
2022/07/22 10:40:48;;;;;;;;;;;;;;;35.18;32.50;99636.44;5049698;28;19932;-69
2022/07/22 10:43:17;;;;;;;;;;;;;;;35.25;32.51;99623.38;5042540;28;19975;-68
2022/07/22 10:45:47;;;;;;;;;;;;;;;35.38;32.92;99629.91;5036251;28;19929;-69
2022/07/22 10:48:17;;;;;;;;;;;;;;;35.55;32.11;99628.16;5052036;28;20301;-69
2022/07/22 10:51:05;;;;;;;;;;;;;;;35.55;31.34;99621.03;5056106;28;19924;-69
2022/07/22 10:53:42;;;;;;;;;;;;;;;35.55;30.81;99626.34;5055792;28;19925;-68
2022/07/22 10:56:19;;;;;;;;;;;;;;;35.51;30.70;99619.69;5055908;28;19932;-70
2022/07/22 10:58:52;;;;;;;;;;;;;;;35.47;30.10;99613.00;5056027;28;19928;-69
2022/07/22 11:01:22;;;;;;;;;;;;;;;35.45;30.09;99611.50;5056045;28;19925;-69
2022/07/22 11:03:51;;;;;;;;;;;;;;;35.43;30.03;99611.66;5055816;28;19960;-70
2022/07/22 11:06:22;;;;;;;;;;;;;;;35.54;30.52;99608.75;5054515;28;19935;-69
2022/07/22 11:08:53;;;;;;;;;;;;;;;35.73;30.53;99601.50;5056101;28;19971;-69
2022/07/22 11:11:33;;;;;;;;;;;;;;;35.85;30.40;99594.88;5055770;28;19974;-68
2022/07/22 11:14:02;;;;;;;;;;;;;;;35.99;30.54;99602.22;5055666;28;19925;-69
2022/07/22 11:16:30;;;;;;;;;;;;;;;35.99;30.09;99599.56;5055590;28;19925;-70
2022/07/22 11:19:01;;;;;;;;;;;;;;;35.99;30.14;99596.91;5055485;28;19925;-70
2022/07/22 11:21:31;;;;;;;;;;;;;;;36.11;30.21;99592.94;5055921;28;20389;-70
2022/07/22 11:24:05;;;;;;;;;;;;;;;36.16;30.12;99588.75;5055513;28;19925;-69
2022/07/22 11:26:36;;;;;;;;;;;;;;;36.24;29.99;99593.25;5055491;28;19931;-69
2022/07/22 11:29:05;;;;;;;;;;;;;;;36.39;29.77;99594.25;5055912;28;20298;-69
2022/07/22 11:31:34;;;;;;;;;;;;;;;36.40;29.52;99590.59;5055238;28;20397;-68
2022/07/22 11:34:07;;;;;;;;;;;;;;;36.47;29.61;99590.78;5055317;28;19988;-69
2022/07/22 11:36:36;;;;;;;;;;;;;;;36.49;29.83;99596.75;5055459;28;20338;-68
2022/07/22 11:39:07;;;;;;;;;;;;;;;36.39;29.42;99596.91;5055481;28;19925;-69
2022/07/22 11:41:36;;;;;;;;;;;;;;;36.41;29.90;99592.22;5048782;28;19925;-68
2022/07/22 11:44:04;;;;;;;;;;;;;;;36.52;29.69;99589.25;5039147;28;19925;-69
2022/07/22 11:46:37;;;;;;;;;;;;;;;36.51;29.48;99586.78;5035152;28;19925;-68
2022/07/22 11:49:07;;;;;;;;;;;;;;;36.58;29.05;99585.09;5034689;28;19929;-69
2022/07/22 11:51:36;;;;;;;;;;;;;;;36.50;28.34;99580.63;5035237;28;19925;-67
2022/07/22 11:54:06;;;;;;;;;;;;;;;36.48;28.18;99582.63;5035050;28;19925;-68
2022/07/22 11:56:35;;;;;;;;;;;;;;;36.53;28.75;99585.59;5034836;28;19925;-68
2022/07/22 11:59:05;;;;;;;;;;;;;;;36.67;29.15;99581.41;5034817;28;19925;-68
2022/07/22 12:01:35;;;;;;;;;;;;;;;36.79;29.52;99586.19;5035013;28;19948;-68
2022/07/22 12:04:04;;;;;;;;;;;;;;;36.81;29.25;99578.06;5034930;28;20291;-68
2022/07/22 12:06:36;;;;;;;;;;;;;;;36.82;29.07;99580.53;5034913;28;19925;-68
2022/07/22 12:09:06;;;;;;;;;;;;;;;36.80;28.34;99574.56;5051994;28;19925;-69
2022/07/22 12:11:38;;;;;;;;;;;;;;;36.77;28.21;99577.56;5054189;28;19925;-69
2022/07/22 12:14:08;;;;;;;;;;;;;;;36.90;29.10;99575.22;5047287;28;19929;-69
2022/07/22 12:16:43;;;;;;;;;;;;;;;36.81;28.29;99573.56;5050182;28;19931;-68
2022/07/22 12:19:13;;;;;;;;;;;;;;;36.81;28.15;99562.91;5054312;28;19925;-68
2022/07/22 12:21:55;;;;;;;;;;;;;;;36.91;28.13;99568.03;5054292;28;19990;-68
2022/07/22 12:24:28;;;;;;;;;;;;;;;36.68;27.63;99562.63;5054299;28;19925;-70
2022/07/22 12:27:00;;;;;;;;;;;;;;;36.53;28.06;99558.16;5045652;28;19929;-68
2022/07/22 12:29:30;;;;;;;;;;;;;;;36.54;28.54;99552.69;5034657;28;19932;-68
2022/07/22 12:32:00;;;;;;;;;;;;;;;36.65;29.16;99549.66;5049625;28;19925;-68
2022/07/22 12:34:33;;;;;;;;;;;;;;;36.69;28.51;99550.97;5044714;28;20686;-69
2022/07/22 12:37:03;;;;;;;;;;;;;;;36.63;28.82;99543.69;5051483;28;19929;-68
2022/07/22 12:39:32;;;;;;;;;;;;;;;36.68;28.66;99538.69;5038338;28;19925;-68
2022/07/22 12:42:02;;;;;;;;;;;;;;;36.79;28.16;99534.81;5034009;28;19925;-68
2022/07/22 12:44:30;;;;;;;;;;;;;;;36.82;28.04;99532.63;5034597;28;20278;-68
2022/07/22 12:47:02;;;;;;;;;;;;;;;36.87;27.73;99532.97;5049865;28;19979;-68
2022/07/22 12:49:31;;;;;;;;;;;;;;;36.93;27.27;99539.44;5046489;28;19967;-68
2022/07/22 12:52:06;;;;;;;;;;;;;;;36.79;27.35;99532.97;5054159;28;19928;-68
2022/07/22 12:54:35;;;;;;;;;;;;;;;36.63;27.45;99530.38;5047998;28;19925;-69
2022/07/22 12:57:05;;;;;;;;;;;;;;;36.72;27.30;99531.16;5044421;28;20385;-69
2022/07/22 12:59:34;;;;;;;;;;;;;;;36.72;27.18;99534.66;5053506;28;19931;-68
2022/07/22 13:02:05;;;;;;;;;;;;;;;36.72;27.08;99537.31;5052705;28;19924;-69
2022/07/22 13:04:34;;;;;;;;;;;;;;;36.65;27.71;99536.34;5052640;28;20007;-68
2022/07/22 13:07:02;;;;;;;;;;;;;;;36.46;27.75;99530.59;5054003;28;19979;-68
2022/07/22 13:09:32;;;;;;;;;;;;;;;36.48;27.69;99532.06;5053593;28;19924;-68
2022/07/22 13:12:00;;;;;;;;;;;;;;;36.55;28.11;99529.56;5053677;28;19925;-68